sensor_id;sensor_type;location;lat;lon;timestamp;P1;durP1;ratioP1;P2;durP2;ratioP2
70078;SDS011;57451;52.496;13.456;2022-09-09T00:01:15;10.10;;;6.90;;
70078;SDS011;57451;52.496;13.456;2022-09-09T00:03:59;14.23;;;7.13;;
70078;SDS011;57451;52.496;13.456;2022-09-09T00:06:31;8.95;;;6.32;;
70078;SDS011;57451;52.496;13.456;2022-09-09T00:09:02;11.32;;;6.97;;
70078;SDS011;57451;52.496;13.456;2022-09-09T00:11:39;10.90;;;6.78;;
70078;SDS011;57451;52.496;13.456;2022-09-09T00:14:11;9.75;;;6.57;;
70078;SDS011;57451;52.496;13.456;2022-09-09T00:16:44;15.73;;;6.53;;
70078;SDS011;57451;52.496;13.456;2022-09-09T00:19:17;8.88;;;6.47;;
70078;SDS011;57451;52.496;13.456;2022-09-09T00:21:48;11.73;;;6.95;;
70078;SDS011;57451;52.496;13.456;2022-09-09T00:24:26;9.05;;;6.55;;
70078;SDS011;57451;52.496;13.456;2022-09-09T00:26:56;8.82;;;6.25;;
70078;SDS011;57451;52.496;13.456;2022-09-09T00:29:28;11.87;;;6.33;;
70078;SDS011;57451;52.496;13.456;2022-09-09T00:32:00;10.68;;;6.03;;
70078;SDS011;57451;52.496;13.456;2022-09-09T00:34:36;10.60;;;6.85;;
70078;SDS011;57451;52.496;13.456;2022-09-09T00:37:05;9.95;;;6.85;;
70078;SDS011;57451;52.496;13.456;2022-09-09T00:39:34;9.50;;;6.55;;
70078;SDS011;57451;52.496;13.456;2022-09-09T00:42:09;9.60;;;7.10;;
70078;SDS011;57451;52.496;13.456;2022-09-09T00:44:43;9.02;;;6.65;;
70078;SDS011;57451;52.496;13.456;2022-09-09T00:47:21;9.25;;;6.80;;
70078;SDS011;57451;52.496;13.456;2022-09-09T00:50:03;9.57;;;6.05;;
70078;SDS011;57451;52.496;13.456;2022-09-09T00:52:43;9.00;;;6.57;;
70078;SDS011;57451;52.496;13.456;2022-09-09T00:55:19;8.50;;;5.90;;
70078;SDS011;57451;52.496;13.456;2022-09-09T00:57:52;9.27;;;5.78;;
70078;SDS011;57451;52.496;13.456;2022-09-09T01:00:20;9.60;;;6.40;;
70078;SDS011;57451;52.496;13.456;2022-09-09T01:02:52;11.02;;;6.65;;
70078;SDS011;57451;52.496;13.456;2022-09-09T01:05:38;9.15;;;6.22;;
70078;SDS011;57451;52.496;13.456;2022-09-09T01:08:11;8.50;;;5.83;;
70078;SDS011;57451;52.496;13.456;2022-09-09T01:10:48;9.75;;;6.30;;
70078;SDS011;57451;52.496;13.456;2022-09-09T01:13:19;9.43;;;6.53;;
70078;SDS011;57451;52.496;13.456;2022-09-09T01:15:49;10.73;;;6.57;;
70078;SDS011;57451;52.496;13.456;2022-09-09T01:18:20;10.40;;;6.57;;
70078;SDS011;57451;52.496;13.456;2022-09-09T01:20:55;10.13;;;6.70;;
70078;SDS011;57451;52.496;13.456;2022-09-09T01:23:34;8.80;;;6.40;;
70078;SDS011;57451;52.496;13.456;2022-09-09T01:26:28;8.63;;;6.47;;
70078;SDS011;57451;52.496;13.456;2022-09-09T01:29:02;11.27;;;7.03;;
70078;SDS011;57451;52.496;13.456;2022-09-09T01:31:36;11.23;;;6.40;;
70078;SDS011;57451;52.496;13.456;2022-09-09T01:34:08;12.33;;;6.80;;
70078;SDS011;57451;52.496;13.456;2022-09-09T01:36:38;10.82;;;6.47;;
70078;SDS011;57451;52.496;13.456;2022-09-09T01:39:08;9.82;;;6.75;;
70078;SDS011;57451;52.496;13.456;2022-09-09T01:41:37;10.90;;;6.93;;
70078;SDS011;57451;52.496;13.456;2022-09-09T01:44:07;9.35;;;6.40;;
70078;SDS011;57451;52.496;13.456;2022-09-09T01:46:36;9.67;;;6.53;;
70078;SDS011;57451;52.496;13.456;2022-09-09T01:49:03;9.18;;;6.88;;
70078;SDS011;57451;52.496;13.456;2022-09-09T01:51:32;10.15;;;7.45;;
70078;SDS011;57451;52.496;13.456;2022-09-09T01:54:03;9.88;;;6.82;;
70078;SDS011;57451;52.496;13.456;2022-09-09T01:56:34;9.00;;;7.15;;
70078;SDS011;57451;52.496;13.456;2022-09-09T01:59:13;9.40;;;6.80;;
70078;SDS011;57451;52.496;13.456;2022-09-09T02:01:56;11.70;;;6.80;;
70078;SDS011;57451;52.496;13.456;2022-09-09T02:04:36;9.00;;;6.72;;
70078;SDS011;57451;52.496;13.456;2022-09-09T02:07:21;10.45;;;7.13;;
70078;SDS011;57451;52.496;13.456;2022-09-09T02:09:59;9.93;;;7.00;;
70078;SDS011;57451;52.496;13.456;2022-09-09T02:12:34;9.30;;;6.10;;
70078;SDS011;57451;52.496;13.456;2022-09-09T02:15:05;8.90;;;6.45;;
70078;SDS011;57451;52.496;13.456;2022-09-09T02:17:47;10.02;;;7.10;;
70078;SDS011;57451;52.496;13.456;2022-09-09T02:20:17;9.75;;;6.72;;
70078;SDS011;57451;52.496;13.456;2022-09-09T02:22:50;9.00;;;6.25;;
70078;SDS011;57451;52.496;13.456;2022-09-09T02:25:20;9.57;;;6.30;;
70078;SDS011;57451;52.496;13.456;2022-09-09T02:27:54;10.50;;;6.60;;
70078;SDS011;57451;52.496;13.456;2022-09-09T02:30:23;11.50;;;6.53;;
70078;SDS011;57451;52.496;13.456;2022-09-09T02:32:55;9.27;;;6.43;;
70078;SDS011;57451;52.496;13.456;2022-09-09T02:35:28;10.35;;;6.28;;
70078;SDS011;57451;52.496;13.456;2022-09-09T02:37:56;9.40;;;6.37;;
70078;SDS011;57451;52.496;13.456;2022-09-09T02:40:27;8.55;;;6.28;;
70078;SDS011;57451;52.496;13.456;2022-09-09T02:43:00;10.55;;;6.90;;
70078;SDS011;57451;52.496;13.456;2022-09-09T02:45:32;8.27;;;6.03;;
70078;SDS011;57451;52.496;13.456;2022-09-09T02:48:06;9.75;;;5.95;;
70078;SDS011;57451;52.496;13.456;2022-09-09T02:50:38;9.30;;;5.37;;
70078;SDS011;57451;52.496;13.456;2022-09-09T02:53:13;8.45;;;5.80;;
70078;SDS011;57451;52.496;13.456;2022-09-09T02:55:45;9.68;;;6.28;;
70078;SDS011;57451;52.496;13.456;2022-09-09T02:58:17;9.13;;;6.25;;
70078;SDS011;57451;52.496;13.456;2022-09-09T03:00:53;8.48;;;5.90;;
70078;SDS011;57451;52.496;13.456;2022-09-09T03:03:20;9.60;;;6.20;;
70078;SDS011;57451;52.496;13.456;2022-09-09T03:05:49;8.65;;;5.85;;
70078;SDS011;57451;52.496;13.456;2022-09-09T03:08:16;9.40;;;6.35;;
70078;SDS011;57451;52.496;13.456;2022-09-09T03:10:45;8.30;;;5.90;;
70078;SDS011;57451;52.496;13.456;2022-09-09T03:13:16;8.75;;;5.90;;
70078;SDS011;57451;52.496;13.456;2022-09-09T03:15:44;9.40;;;6.03;;
70078;SDS011;57451;52.496;13.456;2022-09-09T03:18:15;7.90;;;5.90;;
70078;SDS011;57451;52.496;13.456;2022-09-09T03:20:46;8.13;;;5.55;;
70078;SDS011;57451;52.496;13.456;2022-09-09T03:23:15;9.40;;;5.72;;
70078;SDS011;57451;52.496;13.456;2022-09-09T03:25:46;9.00;;;5.93;;
70078;SDS011;57451;52.496;13.456;2022-09-09T03:28:14;9.37;;;5.47;;
70078;SDS011;57451;52.496;13.456;2022-09-09T03:30:43;9.13;;;5.50;;
70078;SDS011;57451;52.496;13.456;2022-09-09T03:33:09;8.60;;;5.90;;
70078;SDS011;57451;52.496;13.456;2022-09-09T03:35:36;9.05;;;5.43;;
70078;SDS011;57451;52.496;13.456;2022-09-09T03:38:02;7.95;;;5.43;;
70078;SDS011;57451;52.496;13.456;2022-09-09T03:40:31;8.23;;;5.43;;
70078;SDS011;57451;52.496;13.456;2022-09-09T03:42:57;7.47;;;5.07;;
70078;SDS011;57451;52.496;13.456;2022-09-09T03:45:25;8.77;;;5.22;;
70078;SDS011;57451;52.496;13.456;2022-09-09T03:47:52;10.40;;;5.75;;
70078;SDS011;57451;52.496;13.456;2022-09-09T03:50:20;9.50;;;5.22;;
70078;SDS011;57451;52.496;13.456;2022-09-09T03:52:47;8.97;;;5.77;;
70078;SDS011;57451;52.496;13.456;2022-09-09T03:55:19;6.90;;;4.85;;
70078;SDS011;57451;52.496;13.456;2022-09-09T03:57:45;10.43;;;5.63;;
70078;SDS011;57451;52.496;13.456;2022-09-09T04:00:12;8.10;;;5.47;;
70078;SDS011;57451;52.496;13.456;2022-09-09T04:02:50;8.73;;;5.05;;
70078;SDS011;57451;52.496;13.456;2022-09-09T04:05:21;7.93;;;5.20;;
70078;SDS011;57451;52.496;13.456;2022-09-09T04:07:48;7.47;;;4.63;;
70078;SDS011;57451;52.496;13.456;2022-09-09T04:10:15;8.15;;;5.03;;
70078;SDS011;57451;52.496;13.456;2022-09-09T04:12:42;8.98;;;5.35;;
70078;SDS011;57451;52.496;13.456;2022-09-09T04:15:09;7.15;;;4.75;;
70078;SDS011;57451;52.496;13.456;2022-09-09T04:17:38;9.73;;;5.27;;
70078;SDS011;57451;52.496;13.456;2022-09-09T04:20:04;8.77;;;5.70;;
70078;SDS011;57451;52.496;13.456;2022-09-09T04:22:33;10.82;;;5.97;;
70078;SDS011;57451;52.496;13.456;2022-09-09T04:25:00;8.82;;;5.10;;
70078;SDS011;57451;52.496;13.456;2022-09-09T04:27:27;7.95;;;5.53;;
70078;SDS011;57451;52.496;13.456;2022-09-09T04:29:54;7.70;;;4.70;;
70078;SDS011;57451;52.496;13.456;2022-09-09T04:32:23;11.02;;;5.90;;
70078;SDS011;57451;52.496;13.456;2022-09-09T04:34:52;8.68;;;5.60;;
70078;SDS011;57451;52.496;13.456;2022-09-09T04:37:18;8.35;;;5.38;;
70078;SDS011;57451;52.496;13.456;2022-09-09T04:39:46;7.63;;;5.15;;
70078;SDS011;57451;52.496;13.456;2022-09-09T04:42:12;7.20;;;4.90;;
70078;SDS011;57451;52.496;13.456;2022-09-09T04:44:38;8.63;;;5.38;;
70078;SDS011;57451;52.496;13.456;2022-09-09T04:47:06;7.90;;;4.95;;
70078;SDS011;57451;52.496;13.456;2022-09-09T04:49:32;8.88;;;5.25;;
70078;SDS011;57451;52.496;13.456;2022-09-09T04:51:58;9.18;;;5.45;;
70078;SDS011;57451;52.496;13.456;2022-09-09T04:54:25;10.10;;;5.83;;
70078;SDS011;57451;52.496;13.456;2022-09-09T04:56:52;11.00;;;5.60;;
70078;SDS011;57451;52.496;13.456;2022-09-09T04:59:18;12.27;;;5.90;;
70078;SDS011;57451;52.496;13.456;2022-09-09T05:01:49;16.65;;;5.97;;
70078;SDS011;57451;52.496;13.456;2022-09-09T05:04:15;16.63;;;5.93;;
70078;SDS011;57451;52.496;13.456;2022-09-09T05:06:42;12.13;;;5.83;;
70078;SDS011;57451;52.496;13.456;2022-09-09T05:09:09;16.77;;;6.35;;
70078;SDS011;57451;52.496;13.456;2022-09-09T05:11:36;20.52;;;7.45;;
70078;SDS011;57451;52.496;13.456;2022-09-09T05:14:23;23.20;;;7.57;;
70078;SDS011;57451;52.496;13.456;2022-09-09T05:16:49;22.23;;;8.07;;
70078;SDS011;57451;52.496;13.456;2022-09-09T05:19:16;20.43;;;7.47;;
70078;SDS011;57451;52.496;13.456;2022-09-09T05:21:47;15.95;;;6.43;;
70078;SDS011;57451;52.496;13.456;2022-09-09T05:24:17;15.48;;;6.45;;
70078;SDS011;57451;52.496;13.456;2022-09-09T05:26:45;16.10;;;5.95;;
70078;SDS011;57451;52.496;13.456;2022-09-09T05:29:11;16.02;;;5.70;;
70078;SDS011;57451;52.496;13.456;2022-09-09T05:31:39;15.80;;;5.63;;
70078;SDS011;57451;52.496;13.456;2022-09-09T05:34:10;11.65;;;5.72;;
70078;SDS011;57451;52.496;13.456;2022-09-09T05:36:37;12.23;;;5.63;;
70078;SDS011;57451;52.496;13.456;2022-09-09T05:39:03;11.48;;;5.20;;
70078;SDS011;57451;52.496;13.456;2022-09-09T05:41:31;13.70;;;5.47;;
70078;SDS011;57451;52.496;13.456;2022-09-09T05:44:00;11.77;;;5.23;;
70078;SDS011;57451;52.496;13.456;2022-09-09T05:46:27;10.40;;;5.32;;
70078;SDS011;57451;52.496;13.456;2022-09-09T05:48:56;8.98;;;5.18;;
70078;SDS011;57451;52.496;13.456;2022-09-09T05:51:28;9.02;;;4.97;;
70078;SDS011;57451;52.496;13.456;2022-09-09T05:54:01;9.50;;;5.03;;
70078;SDS011;57451;52.496;13.456;2022-09-09T05:56:31;8.80;;;4.70;;
70078;SDS011;57451;52.496;13.456;2022-09-09T05:58:58;9.68;;;4.78;;
70078;SDS011;57451;52.496;13.456;2022-09-09T06:01:26;8.05;;;4.70;;
70078;SDS011;57451;52.496;13.456;2022-09-09T06:03:55;8.60;;;4.30;;
70078;SDS011;57451;52.496;13.456;2022-09-09T06:06:25;9.57;;;4.95;;
70078;SDS011;57451;52.496;13.456;2022-09-09T06:08:55;6.47;;;3.80;;
70078;SDS011;57451;52.496;13.456;2022-09-09T06:11:31;6.75;;;3.90;;
70078;SDS011;57451;52.496;13.456;2022-09-09T06:13:59;5.25;;;3.50;;
70078;SDS011;57451;52.496;13.456;2022-09-09T06:16:27;7.57;;;3.90;;
70078;SDS011;57451;52.496;13.456;2022-09-09T06:18:56;8.18;;;3.78;;
70078;SDS011;57451;52.496;13.456;2022-09-09T06:21:25;7.60;;;3.40;;
70078;SDS011;57451;52.496;13.456;2022-09-09T06:23:52;8.57;;;3.72;;
70078;SDS011;57451;52.496;13.456;2022-09-09T06:26:20;7.00;;;4.00;;
70078;SDS011;57451;52.496;13.456;2022-09-09T06:28:49;7.60;;;3.72;;
70078;SDS011;57451;52.496;13.456;2022-09-09T06:31:19;8.02;;;3.65;;
70078;SDS011;57451;52.496;13.456;2022-09-09T06:33:48;5.87;;;2.83;;
70078;SDS011;57451;52.496;13.456;2022-09-09T06:36:17;6.75;;;3.22;;
70078;SDS011;57451;52.496;13.456;2022-09-09T06:38:45;7.05;;;3.58;;
70078;SDS011;57451;52.496;13.456;2022-09-09T06:41:15;7.18;;;3.08;;
70078;SDS011;57451;52.496;13.456;2022-09-09T06:43:44;5.32;;;3.03;;
70078;SDS011;57451;52.496;13.456;2022-09-09T06:46:12;6.43;;;3.13;;
70078;SDS011;57451;52.496;13.456;2022-09-09T06:48:41;8.20;;;3.45;;
70078;SDS011;57451;52.496;13.456;2022-09-09T06:51:10;5.90;;;3.28;;
70078;SDS011;57451;52.496;13.456;2022-09-09T06:53:42;7.10;;;3.05;;
70078;SDS011;57451;52.496;13.456;2022-09-09T06:56:19;5.18;;;2.83;;
70078;SDS011;57451;52.496;13.456;2022-09-09T06:58:49;6.70;;;3.07;;
70078;SDS011;57451;52.496;13.456;2022-09-09T07:01:23;5.68;;;2.90;;
70078;SDS011;57451;52.496;13.456;2022-09-09T07:03:52;6.95;;;2.70;;
70078;SDS011;57451;52.496;13.456;2022-09-09T07:06:20;8.30;;;2.97;;
70078;SDS011;57451;52.496;13.456;2022-09-09T07:08:51;7.93;;;2.90;;
70078;SDS011;57451;52.496;13.456;2022-09-09T07:11:19;6.17;;;3.07;;
70078;SDS011;57451;52.496;13.456;2022-09-09T07:13:46;6.13;;;2.90;;
70078;SDS011;57451;52.496;13.456;2022-09-09T07:16:14;7.00;;;3.10;;
70078;SDS011;57451;52.496;13.456;2022-09-09T07:18:42;6.07;;;2.83;;
70078;SDS011;57451;52.496;13.456;2022-09-09T07:21:09;4.93;;;2.70;;
70078;SDS011;57451;52.496;13.456;2022-09-09T07:23:40;5.70;;;2.90;;
70078;SDS011;57451;52.496;13.456;2022-09-09T07:26:09;6.55;;;3.05;;
70078;SDS011;57451;52.496;13.456;2022-09-09T07:28:37;6.35;;;2.80;;
70078;SDS011;57451;52.496;13.456;2022-09-09T07:31:04;6.18;;;2.72;;
70078;SDS011;57451;52.496;13.456;2022-09-09T07:33:32;5.10;;;2.53;;
70078;SDS011;57451;52.496;13.456;2022-09-09T07:36:03;6.23;;;2.37;;
70078;SDS011;57451;52.496;13.456;2022-09-09T07:38:31;5.95;;;2.35;;
70078;SDS011;57451;52.496;13.456;2022-09-09T07:41:02;7.35;;;2.70;;
70078;SDS011;57451;52.496;13.456;2022-09-09T07:43:33;7.07;;;2.88;;
70078;SDS011;57451;52.496;13.456;2022-09-09T07:45:59;8.45;;;2.63;;
70078;SDS011;57451;52.496;13.456;2022-09-09T07:48:29;6.70;;;2.87;;
70078;SDS011;57451;52.496;13.456;2022-09-09T07:51:04;8.23;;;2.72;;
70078;SDS011;57451;52.496;13.456;2022-09-09T07:53:32;9.20;;;2.53;;
70078;SDS011;57451;52.496;13.456;2022-09-09T07:56:02;6.53;;;2.70;;
70078;SDS011;57451;52.496;13.456;2022-09-09T07:58:29;9.75;;;2.60;;
70078;SDS011;57451;52.496;13.456;2022-09-09T08:00:57;6.83;;;2.40;;
70078;SDS011;57451;52.496;13.456;2022-09-09T08:03:23;6.57;;;2.20;;
70078;SDS011;57451;52.496;13.456;2022-09-09T08:05:50;5.43;;;2.25;;
70078;SDS011;57451;52.496;13.456;2022-09-09T08:08:16;8.70;;;2.30;;
70078;SDS011;57451;52.496;13.456;2022-09-09T08:10:42;5.78;;;2.42;;
70078;SDS011;57451;52.496;13.456;2022-09-09T08:13:09;5.80;;;2.47;;
70078;SDS011;57451;52.496;13.456;2022-09-09T08:15:36;5.57;;;2.20;;
70078;SDS011;57451;52.496;13.456;2022-09-09T08:18:05;5.97;;;2.50;;
70078;SDS011;57451;52.496;13.456;2022-09-09T08:20:31;7.32;;;2.30;;
70078;SDS011;57451;52.496;13.456;2022-09-09T08:22:57;6.28;;;2.63;;
70078;SDS011;57451;52.496;13.456;2022-09-09T08:25:23;4.77;;;2.40;;
70078;SDS011;57451;52.496;13.456;2022-09-09T08:27:49;7.25;;;2.40;;
70078;SDS011;57451;52.496;13.456;2022-09-09T08:30:16;5.28;;;2.40;;
70078;SDS011;57451;52.496;13.456;2022-09-09T08:32:42;6.43;;;2.20;;
70078;SDS011;57451;52.496;13.456;2022-09-09T08:35:10;4.93;;;2.22;;
70078;SDS011;57451;52.496;13.456;2022-09-09T08:37:37;7.17;;;2.20;;
70078;SDS011;57451;52.496;13.456;2022-09-09T08:40:04;6.03;;;2.22;;
70078;SDS011;57451;52.496;13.456;2022-09-09T08:42:35;5.40;;;2.20;;
70078;SDS011;57451;52.496;13.456;2022-09-09T08:45:13;4.38;;;2.10;;
70078;SDS011;57451;52.496;13.456;2022-09-09T08:47:53;7.05;;;2.20;;
70078;SDS011;57451;52.496;13.456;2022-09-09T08:50:30;6.20;;;2.20;;
70078;SDS011;57451;52.496;13.456;2022-09-09T08:53:05;5.70;;;2.03;;
70078;SDS011;57451;52.496;13.456;2022-09-09T08:55:43;6.40;;;2.20;;
70078;SDS011;57451;52.496;13.456;2022-09-09T08:58:12;5.45;;;1.92;;
70078;SDS011;57451;52.496;13.456;2022-09-09T09:00:44;6.47;;;2.20;;
70078;SDS011;57451;52.496;13.456;2022-09-09T09:03:22;5.60;;;1.97;;
70078;SDS011;57451;52.496;13.456;2022-09-09T09:05:59;4.57;;;1.98;;
70078;SDS011;57451;52.496;13.456;2022-09-09T09:08:35;5.57;;;2.10;;
70078;SDS011;57451;52.496;13.456;2022-09-09T09:11:08;4.63;;;2.03;;
70078;SDS011;57451;52.496;13.456;2022-09-09T09:13:37;6.63;;;2.28;;
70078;SDS011;57451;52.496;13.456;2022-09-09T09:16:13;4.73;;;2.17;;
70078;SDS011;57451;52.496;13.456;2022-09-09T09:18:49;5.80;;;2.20;;
70078;SDS011;57451;52.496;13.456;2022-09-09T09:21:21;7.22;;;2.20;;
70078;SDS011;57451;52.496;13.456;2022-09-09T09:24:00;6.78;;;2.10;;
70078;SDS011;57451;52.496;13.456;2022-09-09T09:26:31;6.25;;;2.22;;
70078;SDS011;57451;52.496;13.456;2022-09-09T09:29:00;4.67;;;2.00;;
70078;SDS011;57451;52.496;13.456;2022-09-09T09:31:34;6.20;;;2.10;;
70078;SDS011;57451;52.496;13.456;2022-09-09T09:34:00;5.40;;;2.55;;
70078;SDS011;57451;52.496;13.456;2022-09-09T09:36:34;5.00;;;2.30;;
70078;SDS011;57451;52.496;13.456;2022-09-09T09:39:05;7.95;;;2.35;;
70078;SDS011;57451;52.496;13.456;2022-09-09T09:41:33;7.27;;;1.80;;
70078;SDS011;57451;52.496;13.456;2022-09-09T09:44:03;4.47;;;2.10;;
70078;SDS011;57451;52.496;13.456;2022-09-09T09:46:31;6.75;;;2.40;;
70078;SDS011;57451;52.496;13.456;2022-09-09T09:49:08;5.28;;;2.00;;
70078;SDS011;57451;52.496;13.456;2022-09-09T09:51:38;4.80;;;1.92;;
70078;SDS011;57451;52.496;13.456;2022-09-09T09:54:08;4.80;;;2.00;;
70078;SDS011;57451;52.496;13.456;2022-09-09T09:56:44;4.55;;;2.10;;
70078;SDS011;57451;52.496;13.456;2022-09-09T09:59:20;5.60;;;1.80;;
70078;SDS011;57451;52.496;13.456;2022-09-09T10:01:48;4.82;;;2.00;;
70078;SDS011;57451;52.496;13.456;2022-09-09T10:04:15;6.22;;;2.20;;
70078;SDS011;57451;52.496;13.456;2022-09-09T10:06:46;5.80;;;2.07;;
70078;SDS011;57451;52.496;13.456;2022-09-09T10:09:20;5.38;;;1.80;;
70078;SDS011;57451;52.496;13.456;2022-09-09T10:11:50;3.92;;;1.80;;
70078;SDS011;57451;52.496;13.456;2022-09-09T10:14:24;4.65;;;1.98;;
70078;SDS011;57451;52.496;13.456;2022-09-09T10:17:02;6.05;;;2.00;;
70078;SDS011;57451;52.496;13.456;2022-09-09T10:19:38;6.27;;;2.03;;
70078;SDS011;57451;52.496;13.456;2022-09-09T10:22:14;5.80;;;2.00;;
70078;SDS011;57451;52.496;13.456;2022-09-09T10:27:51;9.20;;;3.58;;
70078;SDS011;57451;52.496;13.456;2022-09-09T10:30:41;7.22;;;2.20;;
70078;SDS011;57451;52.496;13.456;2022-09-09T10:33:16;5.27;;;1.80;;
70078;SDS011;57451;52.496;13.456;2022-09-09T10:35:52;5.20;;;1.80;;
70078;SDS011;57451;52.496;13.456;2022-09-09T10:38:28;6.22;;;2.10;;
70078;SDS011;57451;52.496;13.456;2022-09-09T10:41:13;4.88;;;1.85;;
70078;SDS011;57451;52.496;13.456;2022-09-09T10:43:56;6.07;;;2.00;;
70078;SDS011;57451;52.496;13.456;2022-09-09T10:46:51;6.53;;;2.00;;
70078;SDS011;57451;52.496;13.456;2022-09-09T10:49:28;6.28;;;1.80;;
70078;SDS011;57451;52.496;13.456;2022-09-09T10:52:09;5.60;;;1.90;;
70078;SDS011;57451;52.496;13.456;2022-09-09T10:54:48;5.97;;;2.00;;
70078;SDS011;57451;52.496;13.456;2022-09-09T10:57:24;4.07;;;1.77;;
70078;SDS011;57451;52.496;13.456;2022-09-09T10:59:55;5.73;;;1.80;;
70078;SDS011;57451;52.496;13.456;2022-09-09T11:02:26;5.97;;;1.60;;
70078;SDS011;57451;52.496;13.456;2022-09-09T11:04:55;4.15;;;1.50;;
70078;SDS011;57451;52.496;13.456;2022-09-09T11:07:25;5.82;;;1.73;;
70078;SDS011;57451;52.496;13.456;2022-09-09T11:10:01;5.65;;;2.00;;
70078;SDS011;57451;52.496;13.456;2022-09-09T11:12:32;4.30;;;1.60;;
70078;SDS011;57451;52.496;13.456;2022-09-09T11:15:05;4.03;;;1.70;;
70078;SDS011;57451;52.496;13.456;2022-09-09T11:17:39;6.13;;;1.88;;
70078;SDS011;57451;52.496;13.456;2022-09-09T11:20:12;5.25;;;1.70;;
70078;SDS011;57451;52.496;13.456;2022-09-09T11:22:39;4.60;;;1.80;;
70078;SDS011;57451;52.496;13.456;2022-09-09T11:25:15;4.47;;;1.77;;
70078;SDS011;57451;52.496;13.456;2022-09-09T11:27:44;5.35;;;1.88;;
70078;SDS011;57451;52.496;13.456;2022-09-09T11:30:22;5.32;;;1.67;;
70078;SDS011;57451;52.496;13.456;2022-09-09T11:32:59;5.40;;;1.83;;
70078;SDS011;57451;52.496;13.456;2022-09-09T11:35:46;4.80;;;1.73;;
70078;SDS011;57451;52.496;13.456;2022-09-09T11:38:25;7.93;;;1.77;;
70078;SDS011;57451;52.496;13.456;2022-09-09T11:41:00;7.53;;;1.80;;
70078;SDS011;57451;52.496;13.456;2022-09-09T11:43:31;5.07;;;1.63;;
70078;SDS011;57451;52.496;13.456;2022-09-09T11:46:05;4.65;;;1.50;;
70078;SDS011;57451;52.496;13.456;2022-09-09T11:48:34;5.30;;;1.42;;
70078;SDS011;57451;52.496;13.456;2022-09-09T11:51:03;5.07;;;1.50;;
70078;SDS011;57451;52.496;13.456;2022-09-09T11:53:33;5.28;;;1.60;;
70078;SDS011;57451;52.496;13.456;2022-09-09T11:56:05;5.32;;;1.55;;
70078;SDS011;57451;52.496;13.456;2022-09-09T11:58:36;5.43;;;1.70;;
70078;SDS011;57451;52.496;13.456;2022-09-09T12:01:16;5.72;;;1.95;;
70078;SDS011;57451;52.496;13.456;2022-09-09T12:03:55;4.23;;;1.60;;
70078;SDS011;57451;52.496;13.456;2022-09-09T12:06:43;5.03;;;1.50;;
70078;SDS011;57451;52.496;13.456;2022-09-09T12:09:19;6.57;;;1.88;;
70078;SDS011;57451;52.496;13.456;2022-09-09T12:11:51;6.05;;;1.63;;
70078;SDS011;57451;52.496;13.456;2022-09-09T12:14:21;5.60;;;1.63;;
70078;SDS011;57451;52.496;13.456;2022-09-09T12:16:49;3.57;;;1.50;;
70078;SDS011;57451;52.496;13.456;2022-09-09T12:19:18;5.03;;;1.42;;
70078;SDS011;57451;52.496;13.456;2022-09-09T12:21:49;3.70;;;1.50;;
70078;SDS011;57451;52.496;13.456;2022-09-09T12:24:22;4.45;;;1.50;;
70078;SDS011;57451;52.496;13.456;2022-09-09T12:26:58;4.93;;;1.30;;
70078;SDS011;57451;52.496;13.456;2022-09-09T12:29:33;5.07;;;1.50;;
70078;SDS011;57451;52.496;13.456;2022-09-09T12:32:07;4.88;;;1.33;;
70078;SDS011;57451;52.496;13.456;2022-09-09T12:34:39;5.13;;;1.50;;
70078;SDS011;57451;52.496;13.456;2022-09-09T12:37:15;3.78;;;1.40;;
70078;SDS011;57451;52.496;13.456;2022-09-09T12:39:55;4.97;;;1.60;;
70078;SDS011;57451;52.496;13.456;2022-09-09T12:42:23;4.27;;;1.63;;
70078;SDS011;57451;52.496;13.456;2022-09-09T12:44:51;4.95;;;1.30;;
70078;SDS011;57451;52.496;13.456;2022-09-09T12:47:19;6.25;;;1.70;;
70078;SDS011;57451;52.496;13.456;2022-09-09T12:49:48;4.28;;;1.40;;
70078;SDS011;57451;52.496;13.456;2022-09-09T12:52:17;3.88;;;1.77;;
70078;SDS011;57451;52.496;13.456;2022-09-09T12:54:49;4.10;;;1.40;;
70078;SDS011;57451;52.496;13.456;2022-09-09T12:57:19;4.55;;;1.50;;
70078;SDS011;57451;52.496;13.456;2022-09-09T12:59:48;4.10;;;1.70;;
70078;SDS011;57451;52.496;13.456;2022-09-09T13:02:18;5.70;;;1.58;;
70078;SDS011;57451;52.496;13.456;2022-09-09T13:04:46;4.63;;;1.67;;
70078;SDS011;57451;52.496;13.456;2022-09-09T13:07:13;3.17;;;1.10;;
70078;SDS011;57451;52.496;13.456;2022-09-09T13:09:41;4.78;;;1.10;;
70078;SDS011;57451;52.496;13.456;2022-09-09T13:12:11;3.67;;;1.30;;
70078;SDS011;57451;52.496;13.456;2022-09-09T13:14:42;4.18;;;1.40;;
70078;SDS011;57451;52.496;13.456;2022-09-09T13:17:17;4.05;;;1.27;;
70078;SDS011;57451;52.496;13.456;2022-09-09T13:19:46;4.10;;;1.10;;
70078;SDS011;57451;52.496;13.456;2022-09-09T13:22:13;4.35;;;1.20;;
70078;SDS011;57451;52.496;13.456;2022-09-09T13:24:43;4.93;;;1.15;;
70078;SDS011;57451;52.496;13.456;2022-09-09T13:29:55;3.38;;;1.20;;
70078;SDS011;57451;52.496;13.456;2022-09-09T13:32:24;5.00;;;1.27;;
70078;SDS011;57451;52.496;13.456;2022-09-09T13:34:52;4.43;;;1.30;;
70078;SDS011;57451;52.496;13.456;2022-09-09T13:37:22;4.25;;;1.40;;
70078;SDS011;57451;52.496;13.456;2022-09-09T13:39:53;4.82;;;1.40;;
70078;SDS011;57451;52.496;13.456;2022-09-09T13:42:24;5.38;;;1.10;;
70078;SDS011;57451;52.496;13.456;2022-09-09T13:44:51;3.80;;;1.17;;
70078;SDS011;57451;52.496;13.456;2022-09-09T13:47:19;5.05;;;1.30;;
70078;SDS011;57451;52.496;13.456;2022-09-09T13:49:48;5.55;;;1.25;;
70078;SDS011;57451;52.496;13.456;2022-09-09T13:52:15;6.45;;;1.50;;
70078;SDS011;57451;52.496;13.456;2022-09-09T13:54:42;6.50;;;1.30;;
70078;SDS011;57451;52.496;13.456;2022-09-09T13:57:14;3.87;;;1.30;;
70078;SDS011;57451;52.496;13.456;2022-09-09T13:59:42;5.38;;;1.25;;
70078;SDS011;57451;52.496;13.456;2022-09-09T14:02:09;5.18;;;1.30;;
70078;SDS011;57451;52.496;13.456;2022-09-09T14:04:35;5.35;;;1.30;;
70078;SDS011;57451;52.496;13.456;2022-09-09T14:07:03;4.43;;;1.35;;
70078;SDS011;57451;52.496;13.456;2022-09-09T14:09:29;4.43;;;1.20;;
70078;SDS011;57451;52.496;13.456;2022-09-09T14:11:55;4.60;;;1.40;;
70078;SDS011;57451;52.496;13.456;2022-09-09T14:14:21;3.78;;;1.30;;
70078;SDS011;57451;52.496;13.456;2022-09-09T14:16:47;4.65;;;1.58;;
70078;SDS011;57451;52.496;13.456;2022-09-09T14:19:14;7.05;;;1.67;;
70078;SDS011;57451;52.496;13.456;2022-09-09T14:21:40;4.77;;;1.40;;
70078;SDS011;57451;52.496;13.456;2022-09-09T14:24:07;6.30;;;1.60;;
70078;SDS011;57451;52.496;13.456;2022-09-09T14:26:33;5.80;;;1.58;;
70078;SDS011;57451;52.496;13.456;2022-09-09T14:29:00;5.65;;;1.60;;
70078;SDS011;57451;52.496;13.456;2022-09-09T14:31:26;6.03;;;1.38;;
70078;SDS011;57451;52.496;13.456;2022-09-09T14:33:52;3.83;;;1.20;;
70078;SDS011;57451;52.496;13.456;2022-09-09T14:36:19;4.22;;;1.55;;
70078;SDS011;57451;52.496;13.456;2022-09-09T14:38:45;4.38;;;1.35;;
70078;SDS011;57451;52.496;13.456;2022-09-09T14:41:13;5.05;;;1.60;;
70078;SDS011;57451;52.496;13.456;2022-09-09T14:43:43;3.85;;;1.70;;
70078;SDS011;57451;52.496;13.456;2022-09-09T14:46:11;4.70;;;1.60;;
70078;SDS011;57451;52.496;13.456;2022-09-09T14:48:39;4.00;;;1.42;;
70078;SDS011;57451;52.496;13.456;2022-09-09T14:51:10;4.15;;;1.40;;
70078;SDS011;57451;52.496;13.456;2022-09-09T14:53:40;3.38;;;1.20;;
70078;SDS011;57451;52.496;13.456;2022-09-09T14:56:08;4.60;;;1.40;;
70078;SDS011;57451;52.496;13.456;2022-09-09T14:58:37;4.10;;;1.30;;
70078;SDS011;57451;52.496;13.456;2022-09-09T15:01:05;4.70;;;1.30;;